sensor_id;sensor_type;location;lat;lon;timestamp;P1;durP1;ratioP1;P2;durP2;ratioP2
13014;SDS011;6573;57.696;11.950;2023-06-14T00:00:03;7.47;;;3.27;;
13014;SDS011;6573;57.696;11.950;2023-06-14T00:02:34;6.37;;;3.47;;
13014;SDS011;6573;57.696;11.950;2023-06-14T00:05:03;5.97;;;3.50;;
13014;SDS011;6573;57.696;11.950;2023-06-14T00:07:35;6.03;;;3.37;;
13014;SDS011;6573;57.696;11.950;2023-06-14T00:10:05;3.80;;;3.13;;
13014;SDS011;6573;57.696;11.950;2023-06-14T00:12:35;3.93;;;3.00;;
13014;SDS011;6573;57.696;11.950;2023-06-14T00:15:05;8.60;;;2.97;;
13014;SDS011;6573;57.696;11.950;2023-06-14T00:17:36;3.90;;;3.17;;
13014;SDS011;6573;57.696;11.950;2023-06-14T00:20:06;6.00;;;2.67;;
13014;SDS011;6573;57.696;11.950;2023-06-14T00:22:36;7.13;;;3.30;;
13014;SDS011;6573;57.696;11.950;2023-06-14T00:25:05;3.43;;;2.80;;
13014;SDS011;6573;57.696;11.950;2023-06-14T00:27:56;5.93;;;3.03;;
13014;SDS011;6573;57.696;11.950;2023-06-14T00:30:25;5.37;;;3.10;;
13014;SDS011;6573;57.696;11.950;2023-06-14T00:32:57;4.33;;;3.00;;
13014;SDS011;6573;57.696;11.950;2023-06-14T00:35:26;4.83;;;2.77;;
13014;SDS011;6573;57.696;11.950;2023-06-14T00:37:55;4.90;;;3.47;;
13014;SDS011;6573;57.696;11.950;2023-06-14T00:40:23;3.77;;;2.90;;
13014;SDS011;6573;57.696;11.950;2023-06-14T00:42:52;9.00;;;3.10;;
13014;SDS011;6573;57.696;11.950;2023-06-14T00:45:21;9.10;;;3.27;;
13014;SDS011;6573;57.696;11.950;2023-06-14T00:47:50;6.17;;;3.17;;
13014;SDS011;6573;57.696;11.950;2023-06-14T00:50:22;5.67;;;3.37;;
13014;SDS011;6573;57.696;11.950;2023-06-14T00:52:51;4.70;;;3.40;;
13014;SDS011;6573;57.696;11.950;2023-06-14T00:55:19;10.63;;;3.10;;
13014;SDS011;6573;57.696;11.950;2023-06-14T00:57:48;4.53;;;3.27;;
13014;SDS011;6573;57.696;11.950;2023-06-14T01:00:17;5.37;;;3.10;;
13014;SDS011;6573;57.696;11.950;2023-06-14T01:02:47;10.27;;;3.90;;
13014;SDS011;6573;57.696;11.950;2023-06-14T01:05:17;4.50;;;3.53;;
13014;SDS011;6573;57.696;11.950;2023-06-14T01:07:51;6.17;;;3.20;;
13014;SDS011;6573;57.696;11.950;2023-06-14T01:10:35;5.63;;;3.23;;
13014;SDS011;6573;57.696;11.950;2023-06-14T01:13:10;6.33;;;2.87;;
13014;SDS011;6573;57.696;11.950;2023-06-14T01:15:44;8.50;;;3.10;;
13014;SDS011;6573;57.696;11.950;2023-06-14T01:18:16;6.37;;;3.33;;
13014;SDS011;6573;57.696;11.950;2023-06-14T01:20:46;4.30;;;3.40;;
13014;SDS011;6573;57.696;11.950;2023-06-14T01:23:18;3.70;;;3.17;;
13014;SDS011;6573;57.696;11.950;2023-06-14T01:25:48;9.40;;;3.40;;
13014;SDS011;6573;57.696;11.950;2023-06-14T01:28:20;7.83;;;3.70;;
13014;SDS011;6573;57.696;11.950;2023-06-14T01:30:50;5.53;;;3.63;;
13014;SDS011;6573;57.696;11.950;2023-06-14T01:33:22;8.03;;;4.43;;
13014;SDS011;6573;57.696;11.950;2023-06-14T01:35:52;6.30;;;3.60;;
13014;SDS011;6573;57.696;11.950;2023-06-14T01:38:23;9.40;;;3.37;;
13014;SDS011;6573;57.696;11.950;2023-06-14T01:40:53;6.90;;;3.63;;
13014;SDS011;6573;57.696;11.950;2023-06-14T01:43:24;8.33;;;4.00;;
13014;SDS011;6573;57.696;11.950;2023-06-14T01:45:55;8.60;;;3.93;;
13014;SDS011;6573;57.696;11.950;2023-06-14T01:48:26;4.60;;;3.37;;
13014;SDS011;6573;57.696;11.950;2023-06-14T01:50:54;9.30;;;3.47;;
13014;SDS011;6573;57.696;11.950;2023-06-14T01:53:24;8.47;;;3.70;;
13014;SDS011;6573;57.696;11.950;2023-06-14T01:55:52;9.47;;;4.60;;
13014;SDS011;6573;57.696;11.950;2023-06-14T01:58:21;9.67;;;4.13;;
13014;SDS011;6573;57.696;11.950;2023-06-14T02:00:50;8.10;;;4.43;;
13014;SDS011;6573;57.696;11.950;2023-06-14T02:03:22;7.00;;;5.23;;
13014;SDS011;6573;57.696;11.950;2023-06-14T02:05:51;6.97;;;3.90;;
13014;SDS011;6573;57.696;11.950;2023-06-14T02:08:21;5.60;;;3.90;;
13014;SDS011;6573;57.696;11.950;2023-06-14T02:10:51;10.00;;;4.57;;
13014;SDS011;6573;57.696;11.950;2023-06-14T02:13:19;7.43;;;4.23;;
13014;SDS011;6573;57.696;11.950;2023-06-14T02:15:48;7.30;;;3.87;;
13014;SDS011;6573;57.696;11.950;2023-06-14T02:18:21;9.00;;;3.97;;
13014;SDS011;6573;57.696;11.950;2023-06-14T02:20:50;8.10;;;4.33;;
13014;SDS011;6573;57.696;11.950;2023-06-14T02:23:19;5.13;;;3.73;;
13014;SDS011;6573;57.696;11.950;2023-06-14T02:25:48;7.87;;;4.53;;
13014;SDS011;6573;57.696;11.950;2023-06-14T02:28:18;6.23;;;3.93;;
13014;SDS011;6573;57.696;11.950;2023-06-14T02:30:47;8.47;;;4.30;;
13014;SDS011;6573;57.696;11.950;2023-06-14T02:33:15;7.10;;;4.47;;
13014;SDS011;6573;57.696;11.950;2023-06-14T02:35:44;8.20;;;4.03;;
13014;SDS011;6573;57.696;11.950;2023-06-14T02:38:12;7.00;;;4.23;;
13014;SDS011;6573;57.696;11.950;2023-06-14T02:40:41;6.00;;;4.70;;
13014;SDS011;6573;57.696;11.950;2023-06-14T02:43:09;8.57;;;4.30;;
13014;SDS011;6573;57.696;11.950;2023-06-14T02:45:39;7.13;;;4.53;;
13014;SDS011;6573;57.696;11.950;2023-06-14T02:48:08;7.53;;;4.50;;
13014;SDS011;6573;57.696;11.950;2023-06-14T02:50:37;5.87;;;4.57;;
13014;SDS011;6573;57.696;11.950;2023-06-14T02:53:05;8.07;;;4.93;;
13014;SDS011;6573;57.696;11.950;2023-06-14T02:55:33;9.80;;;4.63;;
13014;SDS011;6573;57.696;11.950;2023-06-14T02:58:06;6.03;;;4.70;;
13014;SDS011;6573;57.696;11.950;2023-06-14T03:00:35;9.97;;;4.77;;
13014;SDS011;6573;57.696;11.950;2023-06-14T03:03:06;9.60;;;4.37;;
13014;SDS011;6573;57.696;11.950;2023-06-14T03:05:41;5.87;;;4.60;;
13014;SDS011;6573;57.696;11.950;2023-06-14T03:08:12;6.53;;;4.00;;
13014;SDS011;6573;57.696;11.950;2023-06-14T03:10:43;7.80;;;4.47;;
13014;SDS011;6573;57.696;11.950;2023-06-14T03:13:12;7.57;;;4.80;;
13014;SDS011;6573;57.696;11.950;2023-06-14T03:15:42;10.77;;;4.67;;
13014;SDS011;6573;57.696;11.950;2023-06-14T03:18:13;9.33;;;4.57;;
13014;SDS011;6573;57.696;11.950;2023-06-14T03:20:41;8.13;;;4.80;;
13014;SDS011;6573;57.696;11.950;2023-06-14T03:23:12;10.83;;;4.47;;
13014;SDS011;6573;57.696;11.950;2023-06-14T03:25:40;8.27;;;3.87;;
13014;SDS011;6573;57.696;11.950;2023-06-14T03:28:08;5.50;;;4.00;;
13014;SDS011;6573;57.696;11.950;2023-06-14T03:30:37;7.90;;;3.97;;
13014;SDS011;6573;57.696;11.950;2023-06-14T03:33:05;7.13;;;3.77;;
13014;SDS011;6573;57.696;11.950;2023-06-14T03:35:35;6.40;;;4.37;;
13014;SDS011;6573;57.696;11.950;2023-06-14T03:38:03;5.57;;;4.20;;
13014;SDS011;6573;57.696;11.950;2023-06-14T03:40:32;8.07;;;4.37;;
13014;SDS011;6573;57.696;11.950;2023-06-14T03:43:00;6.83;;;3.70;;
13014;SDS011;6573;57.696;11.950;2023-06-14T03:45:28;6.67;;;3.80;;
13014;SDS011;6573;57.696;11.950;2023-06-14T03:47:57;9.93;;;4.17;;
13014;SDS011;6573;57.696;11.950;2023-06-14T03:50:27;5.67;;;3.70;;
13014;SDS011;6573;57.696;11.950;2023-06-14T03:52:57;6.37;;;3.90;;
13014;SDS011;6573;57.696;11.950;2023-06-14T03:55:27;10.43;;;4.00;;
13014;SDS011;6573;57.696;11.950;2023-06-14T03:58:00;6.50;;;3.40;;
13014;SDS011;6573;57.696;11.950;2023-06-14T04:00:29;8.40;;;3.83;;
13014;SDS011;6573;57.696;11.950;2023-06-14T04:02:58;7.47;;;4.47;;
13014;SDS011;6573;57.696;11.950;2023-06-14T04:05:26;10.37;;;4.30;;
13014;SDS011;6573;57.696;11.950;2023-06-14T04:07:56;9.23;;;3.37;;
13014;SDS011;6573;57.696;11.950;2023-06-14T04:10:27;10.10;;;4.00;;
13014;SDS011;6573;57.696;11.950;2023-06-14T04:12:56;7.80;;;4.00;;
13014;SDS011;6573;57.696;11.950;2023-06-14T04:15:24;5.03;;;3.50;;
13014;SDS011;6573;57.696;11.950;2023-06-14T04:17:55;5.80;;;3.43;;
13014;SDS011;6573;57.696;11.950;2023-06-14T04:20:24;8.83;;;3.70;;
13014;SDS011;6573;57.696;11.950;2023-06-14T04:22:52;7.30;;;3.33;;
13014;SDS011;6573;57.696;11.950;2023-06-14T04:25:25;6.17;;;3.40;;
13014;SDS011;6573;57.696;11.950;2023-06-14T04:27:57;7.10;;;3.17;;
13014;SDS011;6573;57.696;11.950;2023-06-14T04:30:26;5.67;;;3.30;;
13014;SDS011;6573;57.696;11.950;2023-06-14T04:32:57;6.23;;;3.50;;
13014;SDS011;6573;57.696;11.950;2023-06-14T04:35:26;7.73;;;3.60;;
13014;SDS011;6573;57.696;11.950;2023-06-14T04:37:55;8.10;;;3.70;;
13014;SDS011;6573;57.696;11.950;2023-06-14T04:40:25;7.87;;;3.33;;
13014;SDS011;6573;57.696;11.950;2023-06-14T04:42:53;9.87;;;3.93;;
13014;SDS011;6573;57.696;11.950;2023-06-14T04:45:22;12.17;;;3.87;;
13014;SDS011;6573;57.696;11.950;2023-06-14T04:47:50;8.70;;;3.67;;
13014;SDS011;6573;57.696;11.950;2023-06-14T04:50:24;7.33;;;4.20;;
13014;SDS011;6573;57.696;11.950;2023-06-14T04:52:52;6.63;;;3.83;;
13014;SDS011;6573;57.696;11.950;2023-06-14T04:55:21;6.30;;;3.60;;
13014;SDS011;6573;57.696;11.950;2023-06-14T04:57:51;7.50;;;3.80;;
13014;SDS011;6573;57.696;11.950;2023-06-14T05:00:20;12.73;;;3.87;;
13014;SDS011;6573;57.696;11.950;2023-06-14T05:02:49;8.27;;;4.10;;
13014;SDS011;6573;57.696;11.950;2023-06-14T05:05:20;11.40;;;4.10;;
13014;SDS011;6573;57.696;11.950;2023-06-14T05:07:48;16.83;;;5.47;;
13014;SDS011;6573;57.696;11.950;2023-06-14T05:10:17;15.13;;;8.20;;
13014;SDS011;6573;57.696;11.950;2023-06-14T05:12:45;13.10;;;4.17;;
13014;SDS011;6573;57.696;11.950;2023-06-14T05:15:15;13.80;;;4.20;;
13014;SDS011;6573;57.696;11.950;2023-06-14T05:17:45;13.93;;;4.60;;
13014;SDS011;6573;57.696;11.950;2023-06-14T05:20:14;7.67;;;4.03;;
13014;SDS011;6573;57.696;11.950;2023-06-14T05:22:42;9.23;;;4.17;;
13014;SDS011;6573;57.696;11.950;2023-06-14T05:25:11;11.93;;;4.60;;
13014;SDS011;6573;57.696;11.950;2023-06-14T05:27:39;15.73;;;4.43;;
13014;SDS011;6573;57.696;11.950;2023-06-14T05:30:09;13.43;;;4.37;;
13014;SDS011;6573;57.696;11.950;2023-06-14T05:32:39;14.30;;;4.23;;
13014;SDS011;6573;57.696;11.950;2023-06-14T05:35:08;10.83;;;4.00;;
13014;SDS011;6573;57.696;11.950;2023-06-14T05:37:37;16.87;;;4.50;;
13014;SDS011;6573;57.696;11.950;2023-06-14T05:40:05;12.70;;;3.77;;
13014;SDS011;6573;57.696;11.950;2023-06-14T05:42:35;30.90;;;7.17;;
13014;SDS011;6573;57.696;11.950;2023-06-14T05:45:04;11.27;;;4.93;;
13014;SDS011;6573;57.696;11.950;2023-06-14T05:47:33;13.33;;;4.10;;
13014;SDS011;6573;57.696;11.950;2023-06-14T05:50:03;15.47;;;4.20;;
13014;SDS011;6573;57.696;11.950;2023-06-14T05:52:33;11.37;;;4.77;;
13014;SDS011;6573;57.696;11.950;2023-06-14T05:55:04;8.63;;;4.40;;
13014;SDS011;6573;57.696;11.950;2023-06-14T05:57:32;14.13;;;4.30;;
13014;SDS011;6573;57.696;11.950;2023-06-14T06:00:01;15.27;;;4.47;;
13014;SDS011;6573;57.696;11.950;2023-06-14T06:02:36;12.33;;;3.97;;
13014;SDS011;6573;57.696;11.950;2023-06-14T06:05:06;21.30;;;5.37;;
13014;SDS011;6573;57.696;11.950;2023-06-14T06:07:35;15.57;;;4.63;;
13014;SDS011;6573;57.696;11.950;2023-06-14T06:10:04;62.33;;;9.90;;
13014;SDS011;6573;57.696;11.950;2023-06-14T06:12:33;10.40;;;4.47;;
13014;SDS011;6573;57.696;11.950;2023-06-14T06:15:01;23.30;;;4.47;;
13014;SDS011;6573;57.696;11.950;2023-06-14T06:17:30;13.53;;;4.30;;
13014;SDS011;6573;57.696;11.950;2023-06-14T06:20:20;10.87;;;4.20;;
13014;SDS011;6573;57.696;11.950;2023-06-14T06:22:54;14.30;;;4.50;;
13014;SDS011;6573;57.696;11.950;2023-06-14T06:25:22;11.53;;;4.00;;
13014;SDS011;6573;57.696;11.950;2023-06-14T06:27:52;11.83;;;4.20;;
13014;SDS011;6573;57.696;11.950;2023-06-14T06:30:21;12.47;;;4.57;;
13014;SDS011;6573;57.696;11.950;2023-06-14T06:32:49;9.30;;;4.20;;
13014;SDS011;6573;57.696;11.950;2023-06-14T06:35:19;10.60;;;4.13;;
13014;SDS011;6573;57.696;11.950;2023-06-14T06:37:47;12.30;;;4.50;;
13014;SDS011;6573;57.696;11.950;2023-06-14T06:40:16;12.97;;;4.00;;
13014;SDS011;6573;57.696;11.950;2023-06-14T06:42:44;11.60;;;4.07;;
13014;SDS011;6573;57.696;11.950;2023-06-14T06:45:13;14.70;;;4.50;;
13014;SDS011;6573;57.696;11.950;2023-06-14T06:47:41;17.97;;;4.47;;
13014;SDS011;6573;57.696;11.950;2023-06-14T06:50:10;17.13;;;4.53;;
13014;SDS011;6573;57.696;11.950;2023-06-14T06:52:39;11.80;;;4.30;;
13014;SDS011;6573;57.696;11.950;2023-06-14T06:55:08;18.80;;;5.00;;
13014;SDS011;6573;57.696;11.950;2023-06-14T06:57:37;6.97;;;3.97;;
13014;SDS011;6573;57.696;11.950;2023-06-14T07:00:06;16.70;;;4.57;;
13014;SDS011;6573;57.696;11.950;2023-06-14T07:02:37;10.00;;;4.37;;
13014;SDS011;6573;57.696;11.950;2023-06-14T07:05:05;8.43;;;4.27;;
13014;SDS011;6573;57.696;11.950;2023-06-14T07:07:34;17.63;;;5.00;;
13014;SDS011;6573;57.696;11.950;2023-06-14T07:10:04;14.47;;;4.30;;
13014;SDS011;6573;57.696;11.950;2023-06-14T07:12:32;11.83;;;4.30;;
13014;SDS011;6573;57.696;11.950;2023-06-14T07:15:06;13.73;;;3.97;;
13014;SDS011;6573;57.696;11.950;2023-06-14T07:17:35;9.27;;;4.30;;
13014;SDS011;6573;57.696;11.950;2023-06-14T07:20:04;9.03;;;4.10;;
13014;SDS011;6573;57.696;11.950;2023-06-14T07:22:40;13.53;;;4.07;;
13014;SDS011;6573;57.696;11.950;2023-06-14T07:25:10;12.10;;;3.50;;
13014;SDS011;6573;57.696;11.950;2023-06-14T07:27:42;7.80;;;3.60;;
13014;SDS011;6573;57.696;11.950;2023-06-14T07:30:11;7.93;;;3.53;;
13014;SDS011;6573;57.696;11.950;2023-06-14T07:32:40;8.47;;;3.50;;
13014;SDS011;6573;57.696;11.950;2023-06-14T07:35:09;8.03;;;3.47;;
13014;SDS011;6573;57.696;11.950;2023-06-14T07:37:37;10.40;;;3.20;;
13014;SDS011;6573;57.696;11.950;2023-06-14T07:40:06;9.23;;;3.57;;
13014;SDS011;6573;57.696;11.950;2023-06-14T07:42:36;8.10;;;3.40;;
13014;SDS011;6573;57.696;11.950;2023-06-14T07:45:05;9.60;;;3.53;;
13014;SDS011;6573;57.696;11.950;2023-06-14T07:47:34;14.87;;;3.60;;
13014;SDS011;6573;57.696;11.950;2023-06-14T07:50:02;7.77;;;3.80;;
13014;SDS011;6573;57.696;11.950;2023-06-14T07:52:31;9.40;;;3.50;;
13014;SDS011;6573;57.696;11.950;2023-06-14T07:54:59;15.83;;;3.90;;
13014;SDS011;6573;57.696;11.950;2023-06-14T07:57:28;14.10;;;4.17;;
13014;SDS011;6573;57.696;11.950;2023-06-14T07:59:57;13.13;;;3.80;;
13014;SDS011;6573;57.696;11.950;2023-06-14T08:02:26;11.80;;;4.20;;
13014;SDS011;6573;57.696;11.950;2023-06-14T08:04:55;12.13;;;3.50;;
13014;SDS011;6573;57.696;11.950;2023-06-14T08:07:23;6.13;;;3.27;;
13014;SDS011;6573;57.696;11.950;2023-06-14T08:09:52;8.57;;;3.20;;
13014;SDS011;6573;57.696;11.950;2023-06-14T08:12:20;11.03;;;3.53;;
13014;SDS011;6573;57.696;11.950;2023-06-14T08:14:49;8.40;;;3.07;;
13014;SDS011;6573;57.696;11.950;2023-06-14T08:17:39;6.60;;;3.33;;
13014;SDS011;6573;57.696;11.950;2023-06-14T08:20:08;9.53;;;3.67;;
13014;SDS011;6573;57.696;11.950;2023-06-14T08:22:38;11.57;;;4.00;;
13014;SDS011;6573;57.696;11.950;2023-06-14T08:25:09;8.17;;;3.40;;
13014;SDS011;6573;57.696;11.950;2023-06-14T08:27:39;10.37;;;3.60;;
13014;SDS011;6573;57.696;11.950;2023-06-14T08:30:08;8.60;;;3.63;;
13014;SDS011;6573;57.696;11.950;2023-06-14T08:32:39;5.87;;;3.10;;
13014;SDS011;6573;57.696;11.950;2023-06-14T08:35:07;8.17;;;3.50;;
13014;SDS011;6573;57.696;11.950;2023-06-14T08:37:37;5.70;;;2.97;;
13014;SDS011;6573;57.696;11.950;2023-06-14T08:40:12;6.80;;;3.03;;
13014;SDS011;6573;57.696;11.950;2023-06-14T08:42:46;23.80;;;5.23;;
13014;SDS011;6573;57.696;11.950;2023-06-14T08:45:21;7.73;;;3.53;;
13014;SDS011;6573;57.696;11.950;2023-06-14T08:47:55;11.07;;;3.30;;
13014;SDS011;6573;57.696;11.950;2023-06-14T08:50:28;12.40;;;3.87;;
13014;SDS011;6573;57.696;11.950;2023-06-14T08:53:01;12.37;;;3.63;;
13014;SDS011;6573;57.696;11.950;2023-06-14T08:55:31;8.60;;;3.93;;
13014;SDS011;6573;57.696;11.950;2023-06-14T08:58:04;7.93;;;3.03;;
13014;SDS011;6573;57.696;11.950;2023-06-14T09:00:32;12.57;;;3.63;;
13014;SDS011;6573;57.696;11.950;2023-06-14T09:03:02;11.73;;;3.47;;
13014;SDS011;6573;57.696;11.950;2023-06-14T09:05:32;6.67;;;3.33;;
13014;SDS011;6573;57.696;11.950;2023-06-14T09:08:00;12.77;;;4.00;;
13014;SDS011;6573;57.696;11.950;2023-06-14T09:10:32;13.83;;;3.80;;
13014;SDS011;6573;57.696;11.950;2023-06-14T09:13:02;13.17;;;4.10;;
13014;SDS011;6573;57.696;11.950;2023-06-14T09:15:30;7.93;;;4.10;;
13014;SDS011;6573;57.696;11.950;2023-06-14T09:18:00;11.67;;;4.20;;
13014;SDS011;6573;57.696;11.950;2023-06-14T09:20:31;13.70;;;4.07;;
13014;SDS011;6573;57.696;11.950;2023-06-14T09:23:00;15.50;;;4.13;;
13014;SDS011;6573;57.696;11.950;2023-06-14T09:25:29;15.97;;;4.00;;
13014;SDS011;6573;57.696;11.950;2023-06-14T09:28:06;5.07;;;3.50;;
13014;SDS011;6573;57.696;11.950;2023-06-14T09:30:36;6.10;;;3.40;;
13014;SDS011;6573;57.696;11.950;2023-06-14T09:33:05;12.53;;;3.77;;
13014;SDS011;6573;57.696;11.950;2023-06-14T09:35:35;7.13;;;3.70;;
13014;SDS011;6573;57.696;11.950;2023-06-14T09:38:04;9.73;;;3.70;;
13014;SDS011;6573;57.696;11.950;2023-06-14T09:40:34;9.17;;;3.20;;
13014;SDS011;6573;57.696;11.950;2023-06-14T09:43:06;6.20;;;3.50;;
13014;SDS011;6573;57.696;11.950;2023-06-14T09:45:37;11.70;;;3.67;;
13014;SDS011;6573;57.696;11.950;2023-06-14T09:48:07;5.63;;;3.20;;
13014;SDS011;6573;57.696;11.950;2023-06-14T09:50:37;8.60;;;3.87;;
13014;SDS011;6573;57.696;11.950;2023-06-14T09:53:07;5.60;;;3.53;;
13014;SDS011;6573;57.696;11.950;2023-06-14T09:55:39;6.20;;;3.20;;
13014;SDS011;6573;57.696;11.950;2023-06-14T09:58:09;14.60;;;3.80;;
13014;SDS011;6573;57.696;11.950;2023-06-14T10:00:39;9.07;;;3.80;;
13014;SDS011;6573;57.696;11.950;2023-06-14T10:03:13;4.77;;;3.23;;
13014;SDS011;6573;57.696;11.950;2023-06-14T10:05:50;7.40;;;3.30;;
13014;SDS011;6573;57.696;11.950;2023-06-14T10:08:19;5.37;;;3.40;;
13014;SDS011;6573;57.696;11.950;2023-06-14T10:10:52;6.20;;;3.50;;
13014;SDS011;6573;57.696;11.950;2023-06-14T10:13:21;8.93;;;3.60;;
13014;SDS011;6573;57.696;11.950;2023-06-14T10:15:52;5.83;;;3.13;;
13014;SDS011;6573;57.696;11.950;2023-06-14T10:18:28;4.20;;;3.40;;
13014;SDS011;6573;57.696;11.950;2023-06-14T10:21:04;3.60;;;3.30;;
13014;SDS011;6573;57.696;11.950;2023-06-14T10:23:41;8.47;;;3.20;;
13014;SDS011;6573;57.696;11.950;2023-06-14T10:26:17;7.10;;;3.30;;
13014;SDS011;6573;57.696;11.950;2023-06-14T10:28:58;7.60;;;3.03;;
13014;SDS011;6573;57.696;11.950;2023-06-14T10:31:41;3.77;;;3.20;;
13014;SDS011;6573;57.696;11.950;2023-06-14T10:34:10;5.47;;;3.13;;
13014;SDS011;6573;57.696;11.950;2023-06-14T10:36:44;6.87;;;2.93;;
13014;SDS011;6573;57.696;11.950;2023-06-14T10:39:14;5.70;;;3.07;;
13014;SDS011;6573;57.696;11.950;2023-06-14T10:41:50;3.50;;;3.10;;
13014;SDS011;6573;57.696;11.950;2023-06-14T10:47:25;5.10;;;2.90;;
13014;SDS011;6573;57.696;11.950;2023-06-14T10:49:56;5.10;;;3.40;;
13014;SDS011;6573;57.696;11.950;2023-06-14T10:52:32;6.40;;;3.07;;
13014;SDS011;6573;57.696;11.950;2023-06-14T10:55:09;8.43;;;3.03;;
13014;SDS011;6573;57.696;11.950;2023-06-14T10:57:40;5.63;;;3.13;;
13014;SDS011;6573;57.696;11.950;2023-06-14T11:00:17;4.97;;;2.73;;
13014;SDS011;6573;57.696;11.950;2023-06-14T11:05:57;9.60;;;2.87;;
13014;SDS011;6573;57.696;11.950;2023-06-14T11:11:34;9.33;;;3.20;;
13014;SDS011;6573;57.696;11.950;2023-06-14T11:14:05;8.60;;;2.90;;
13014;SDS011;6573;57.696;11.950;2023-06-14T11:16:34;12.73;;;2.80;;
13014;SDS011;6573;57.696;11.950;2023-06-14T11:19:02;9.17;;;3.33;;
13014;SDS011;6573;57.696;11.950;2023-06-14T11:21:32;10.27;;;2.83;;
13014;SDS011;6573;57.696;11.950;2023-06-14T11:24:02;8.00;;;3.17;;
13014;SDS011;6573;57.696;11.950;2023-06-14T11:26:31;10.93;;;2.97;;
13014;SDS011;6573;57.696;11.950;2023-06-14T11:29:01;8.63;;;2.83;;
13014;SDS011;6573;57.696;11.950;2023-06-14T11:31:29;7.70;;;3.07;;
13014;SDS011;6573;57.696;11.950;2023-06-14T11:33:58;4.60;;;2.90;;
13014;SDS011;6573;57.696;11.950;2023-06-14T11:36:27;10.00;;;3.40;;
13014;SDS011;6573;57.696;11.950;2023-06-14T11:38:58;5.23;;;3.17;;
13014;SDS011;6573;57.696;11.950;2023-06-14T11:41:34;9.07;;;3.10;;
13014;SDS011;6573;57.696;11.950;2023-06-14T11:44:04;4.17;;;2.90;;
13014;SDS011;6573;57.696;11.950;2023-06-14T11:46:33;7.27;;;3.17;;
13014;SDS011;6573;57.696;11.950;2023-06-14T11:49:02;4.13;;;2.90;;
13014;SDS011;6573;57.696;11.950;2023-06-14T11:51:31;4.77;;;2.77;;
13014;SDS011;6573;57.696;11.950;2023-06-14T11:54:01;13.13;;;4.77;;
13014;SDS011;6573;57.696;11.950;2023-06-14T11:56:30;4.07;;;2.90;;
13014;SDS011;6573;57.696;11.950;2023-06-14T11:59:01;5.03;;;2.80;;
13014;SDS011;6573;57.696;11.950;2023-06-14T12:01:35;4.17;;;2.90;;
13014;SDS011;6573;57.696;11.950;2023-06-14T12:04:05;6.13;;;2.90;;
13014;SDS011;6573;57.696;11.950;2023-06-14T12:06:33;5.17;;;2.70;;
13014;SDS011;6573;57.696;11.950;2023-06-14T12:09:03;6.13;;;2.77;;
13014;SDS011;6573;57.696;11.950;2023-06-14T12:11:34;4.70;;;2.97;;
13014;SDS011;6573;57.696;11.950;2023-06-14T12:14:05;5.10;;;2.50;;
13014;SDS011;6573;57.696;11.950;2023-06-14T12:16:34;5.47;;;2.50;;
13014;SDS011;6573;57.696;11.950;2023-06-14T12:19:12;4.17;;;2.97;;
13014;SDS011;6573;57.696;11.950;2023-06-14T12:21:42;4.67;;;2.80;;
13014;SDS011;6573;57.696;11.950;2023-06-14T12:24:15;4.37;;;2.77;;
13014;SDS011;6573;57.696;11.950;2023-06-14T12:26:43;6.13;;;2.90;;
13014;SDS011;6573;57.696;11.950;2023-06-14T12:29:14;4.30;;;2.80;;
13014;SDS011;6573;57.696;11.950;2023-06-14T12:31:43;6.37;;;3.03;;
13014;SDS011;6573;57.696;11.950;2023-06-14T12:34:11;4.23;;;2.87;;
13014;SDS011;6573;57.696;11.950;2023-06-14T12:36:39;3.10;;;2.60;;
13014;SDS011;6573;57.696;11.950;2023-06-14T12:39:11;4.43;;;3.20;;
13014;SDS011;6573;57.696;11.950;2023-06-14T12:41:40;6.30;;;2.80;;
13014;SDS011;6573;57.696;11.950;2023-06-14T12:44:09;3.40;;;2.60;;
13014;SDS011;6573;57.696;11.950;2023-06-14T12:46:39;4.30;;;2.83;;
13014;SDS011;6573;57.696;11.950;2023-06-14T12:49:08;7.80;;;2.83;;
13014;SDS011;6573;57.696;11.950;2023-06-14T12:51:37;6.73;;;2.90;;
13014;SDS011;6573;57.696;11.950;2023-06-14T12:54:06;4.37;;;2.90;;
13014;SDS011;6573;57.696;11.950;2023-06-14T12:56:35;9.93;;;3.10;;
13014;SDS011;6573;57.696;11.950;2023-06-14T12:59:03;6.90;;;3.40;;
13014;SDS011;6573;57.696;11.950;2023-06-14T13:01:32;4.97;;;2.80;;
13014;SDS011;6573;57.696;11.950;2023-06-14T13:04:07;5.20;;;2.80;;
13014;SDS011;6573;57.696;11.950;2023-06-14T13:06:39;6.43;;;2.97;;
13014;SDS011;6573;57.696;11.950;2023-06-14T13:09:10;6.87;;;3.10;;
13014;SDS011;6573;57.696;11.950;2023-06-14T13:11:39;4.93;;;2.50;;
13014;SDS011;6573;57.696;11.950;2023-06-14T13:14:07;7.13;;;2.70;;
13014;SDS011;6573;57.696;11.950;2023-06-14T13:16:51;5.13;;;2.77;;
13014;SDS011;6573;57.696;11.950;2023-06-14T13:19:21;6.20;;;2.80;;
13014;SDS011;6573;57.696;11.950;2023-06-14T13:21:49;3.23;;;2.67;;
13014;SDS011;6573;57.696;11.950;2023-06-14T13:24:18;4.53;;;2.93;;
13014;SDS011;6573;57.696;11.950;2023-06-14T13:26:51;4.23;;;2.50;;
13014;SDS011;6573;57.696;11.950;2023-06-14T13:29:22;11.63;;;3.90;;
13014;SDS011;6573;57.696;11.950;2023-06-14T13:31:50;10.07;;;3.30;;
13014;SDS011;6573;57.696;11.950;2023-06-14T13:34:19;8.13;;;3.20;;
13014;SDS011;6573;57.696;11.950;2023-06-14T13:36:49;5.07;;;2.67;;
13014;SDS011;6573;57.696;11.950;2023-06-14T13:39:17;3.07;;;2.73;;
13014;SDS011;6573;57.696;11.950;2023-06-14T13:41:46;6.53;;;2.83;;
13014;SDS011;6573;57.696;11.950;2023-06-14T13:44:14;6.23;;;2.63;;
13014;SDS011;6573;57.696;11.950;2023-06-14T13:46:44;5.33;;;2.80;;
13014;SDS011;6573;57.696;11.950;2023-06-14T13:49:13;4.57;;;2.90;;
13014;SDS011;6573;57.696;11.950;2023-06-14T13:51:43;6.57;;;3.03;;
13014;SDS011;6573;57.696;11.950;2023-06-14T13:54:12;4.97;;;2.90;;
13014;SDS011;6573;57.696;11.950;2023-06-14T13:56:41;7.97;;;4.20;;
13014;SDS011;6573;57.696;11.950;2023-06-14T13:59:09;5.90;;;3.40;;
13014;SDS011;6573;57.696;11.950;2023-06-14T14:01:38;4.97;;;3.00;;
13014;SDS011;6573;57.696;11.950;2023-06-14T14:04:07;9.07;;;2.80;;
13014;SDS011;6573;57.696;11.950;2023-06-14T14:06:36;5.03;;;3.30;;
13014;SDS011;6573;57.696;11.950;2023-06-14T14:09:05;6.03;;;3.13;;
13014;SDS011;6573;57.696;11.950;2023-06-14T14:11:35;5.73;;;2.70;;
13014;SDS011;6573;57.696;11.950;2023-06-14T14:14:06;5.07;;;2.80;;
13014;SDS011;6573;57.696;11.950;2023-06-14T14:16:35;3.93;;;2.80;;
13014;SDS011;6573;57.696;11.950;2023-06-14T14:19:04;5.03;;;2.80;;
13014;SDS011;6573;57.696;11.950;2023-06-14T14:21:34;6.73;;;3.00;;
13014;SDS011;6573;57.696;11.950;2023-06-14T14:24:09;4.77;;;2.80;;
13014;SDS011;6573;57.696;11.950;2023-06-14T14:26:41;6.37;;;2.77;;
13014;SDS011;6573;57.696;11.950;2023-06-14T14:29:15;2.83;;;2.53;;
13014;SDS011;6573;57.696;11.950;2023-06-14T14:31:46;8.83;;;2.63;;
13014;SDS011;6573;57.696;11.950;2023-06-14T14:34:17;4.50;;;2.73;;
13014;SDS011;6573;57.696;11.950;2023-06-14T14:36:53;5.07;;;2.80;;
13014;SDS011;6573;57.696;11.950;2023-06-14T14:39:28;3.80;;;2.57;;
13014;SDS011;6573;57.696;11.950;2023-06-14T14:42:21;4.93;;;2.53;;
13014;SDS011;6573;57.696;11.950;2023-06-14T14:44:57;4.83;;;2.70;;
13014;SDS011;6573;57.696;11.950;2023-06-14T14:47:37;6.00;;;3.90;;
13014;SDS011;6573;57.696;11.950;2023-06-14T14:50:06;6.63;;;3.03;;
13014;SDS011;6573;57.696;11.950;2023-06-14T14:52:35;3.83;;;3.10;;
13014;SDS011;6573;57.696;11.950;2023-06-14T14:55:06;6.23;;;2.70;;
13014;SDS011;6573;57.696;11.950;2023-06-14T14:57:35;9.17;;;2.83;;
13014;SDS011;6573;57.696;11.950;2023-06-14T15:00:04;4.30;;;2.67;;
13014;SDS011;6573;57.696;11.950;2023-06-14T15:02:34;5.00;;;2.83;;
13014;SDS011;6573;57.696;11.950;2023-06-14T15:05:03;4.27;;;2.90;;
13014;SDS011;6573;57.696;11.950;2023-06-14T15:07:31;6.13;;;2.80;;
13014;SDS011;6573;57.696;11.950;2023-06-14T15:10:01;5.87;;;2.90;;